Portada
METAR-TAF:

METAR-TAF

Aeropuertos :

Fuerteventura, España

Aeropuerto de Fuerteventura

latitud: 28-27N, longitud: 013-52W, altitud: 22 m

Observación

El informe se hizo hace 22 minutos, a las 07:30 UTC
Viento 10 kt del norte
Temperatura 19°C
Humedad 78%
Presión 1018 hPa
Visibilidad 10 km o más
Escasas nubes a una altura de 2000 ft
Nubes dispersas a una altura de 4000 ft

METAR: GCFV 170730Z 36010KT 9999 FEW020 SCT040 19/15 Q1018

Hora: 08:52 (07:52 UTC)

Pronóstico

El informe se hizo hace 5 horas y 52 minutos, a las 02:00 UTC
Pronóstico válido del 17 a las 03 UTC al 18 a las 03 UTC
Viento 11 kt del norte
Visibilidad 10 km o más
Nubes dispersas a una altura de 4000 ft
Evolucionando progresivamente
del 17 a las 09 UTC al 17 a las 11 UTC
Viento 13 kt del noreste

TAF: GCFV 170200Z 1703/1803 35011KT 9999 SCT040 TX24/1714Z TN18/1706Z BECMG 1709/1711 05013KT

Observaciones y pronósticos meteorológicos de más de 4000 aeropuertos (mensajes METAR y TAF).

Los puntos amarillos y rojos representan las estaciones disponibles.

Ponga el ratón en el punto deseado para ver el nombre de la estación.

Haga clic para ver las observaciones y los pronósticos meteorológicos.

Para cambiar el mapa : haga clic en los botones verdes con una cruz de color negro para hacer un zoom, en el botón verde con un guión para alejar o en las flechas verdes para mapas adyacentes.


METAR-TAF: